sensor_id;sensor_type;location;lat;lon;timestamp;pressure;altitude;pressure_sealevel;temperature;humidity
48778;BME280;34578;0.000;0.000;2022-10-16T00:00:25;96514.38;;;18.52;65.75
48778;BME280;34578;0.000;0.000;2022-10-16T00:05:25;96510.97;;;18.51;66.05
48778;BME280;34578;0.000;0.000;2022-10-16T00:10:25;96512.69;;;18.51;65.50
48778;BME280;34578;0.000;0.000;2022-10-16T00:15:26;96506.75;;;18.50;65.32
48778;BME280;34578;0.000;0.000;2022-10-16T00:20:26;96506.75;;;18.50;65.04
48778;BME280;34578;0.000;0.000;2022-10-16T00:25:27;96517.75;;;18.51;64.79
48778;BME280;34578;0.000;0.000;2022-10-16T00:30:27;96514.38;;;18.49;68.79
48778;BME280;34578;0.000;0.000;2022-10-16T00:35:29;96522.81;;;18.57;69.21
48778;BME280;34578;0.000;0.000;2022-10-16T00:40:29;96532.13;;;18.52;67.62
48778;BME280;34578;0.000;0.000;2022-10-16T00:45:29;96527.88;;;18.54;66.88
48778;BME280;34578;0.000;0.000;2022-10-16T00:50:32;96527.91;;;18.51;66.13
48778;BME280;34578;0.000;0.000;2022-10-16T00:55:33;96532.09;;;18.50;65.44
48778;BME280;34578;0.000;0.000;2022-10-16T01:00:34;96531.28;;;18.50;65.10
48778;BME280;34578;0.000;0.000;2022-10-16T01:05:45;96535.50;;;18.49;64.87
48778;BME280;34578;0.000;0.000;2022-10-16T01:10:56;96548.19;;;18.51;65.21
48778;BME280;34578;0.000;0.000;2022-10-16T01:16:05;96546.50;;;18.50;64.91
48778;BME280;34578;0.000;0.000;2022-10-16T01:21:27;96549.88;;;18.47;67.83
48778;BME280;34578;0.000;0.000;2022-10-16T01:31:48;96543.91;;;18.56;68.75
48778;BME280;34578;0.000;0.000;2022-10-16T01:36:51;96550.69;;;18.54;67.14
48778;BME280;34578;0.000;0.000;2022-10-16T01:41:58;96554.06;;;18.51;66.29
48778;BME280;34578;0.000;0.000;2022-10-16T01:47:00;96554.94;;;18.50;65.44
48778;BME280;34578;0.000;0.000;2022-10-16T01:52:06;96537.22;;;18.49;65.15
48778;BME280;34578;0.000;0.000;2022-10-16T01:57:08;96542.28;;;18.49;65.19
48778;BME280;34578;0.000;0.000;2022-10-16T02:02:12;96529.59;;;18.49;64.90
48778;BME280;34578;0.000;0.000;2022-10-16T02:07:14;96522.81;;;18.48;64.79
48778;BME280;34578;0.000;0.000;2022-10-16T02:12:25;96532.13;;;18.49;65.00
48778;BME280;34578;0.000;0.000;2022-10-16T02:17:27;96532.97;;;18.51;68.80
48778;BME280;34578;0.000;0.000;2022-10-16T02:22:34;96540.56;;;18.55;68.89
48778;BME280;34578;0.000;0.000;2022-10-16T02:32:43;96543.94;;;18.53;66.77
48778;BME280;34578;0.000;0.000;2022-10-16T02:37:46;96542.25;;;18.50;66.14
48778;BME280;34578;0.000;0.000;2022-10-16T02:42:50;96551.56;;;18.50;65.73
48778;BME280;34578;0.000;0.000;2022-10-16T02:47:51;96554.94;;;18.49;65.08
48778;BME280;34578;0.000;0.000;2022-10-16T02:52:52;96557.50;;;18.44;65.04
48778;BME280;34578;0.000;0.000;2022-10-16T02:57:52;96548.19;;;18.45;64.54
48778;BME280;34578;0.000;0.000;2022-10-16T03:02:53;96556.63;;;18.47;64.89
48778;BME280;34578;0.000;0.000;2022-10-16T03:07:53;96560.00;;;18.50;67.34
48778;BME280;34578;0.000;0.000;2022-10-16T03:12:54;96569.28;;;18.53;68.65
48778;BME280;34578;0.000;0.000;2022-10-16T03:17:56;96560.84;;;18.55;68.80
48778;BME280;34578;0.000;0.000;2022-10-16T03:22:58;96561.69;;;18.53;67.24
48778;BME280;34578;0.000;0.000;2022-10-16T03:27:58;96563.41;;;18.52;66.58
48778;BME280;34578;0.000;0.000;2022-10-16T03:32:58;96557.47;;;18.50;66.38
48778;BME280;34578;0.000;0.000;2022-10-16T03:37:59;96554.94;;;18.49;65.18
48778;BME280;34578;0.000;0.000;2022-10-16T03:42:59;96555.78;;;18.49;65.03
48778;BME280;34578;0.000;0.000;2022-10-16T03:47:59;96554.94;;;18.49;65.07
48778;BME280;34578;0.000;0.000;2022-10-16T03:53:00;96554.94;;;18.47;65.10
48778;BME280;34578;0.000;0.000;2022-10-16T03:58:00;96554.09;;;18.48;65.03
48778;BME280;34578;0.000;0.000;2022-10-16T04:03:01;96565.09;;;18.49;67.76
48778;BME280;34578;0.000;0.000;2022-10-16T04:08:01;96556.63;;;18.53;68.58
48778;BME280;34578;0.000;0.000;2022-10-16T04:13:01;96565.94;;;18.52;67.71
48778;BME280;34578;0.000;0.000;2022-10-16T04:18:03;96558.31;;;18.51;67.02
48778;BME280;34578;0.000;0.000;2022-10-16T04:23:03;96568.47;;;18.51;66.38
48778;BME280;34578;0.000;0.000;2022-10-16T04:28:04;96576.06;;;18.49;66.70
48778;BME280;34578;0.000;0.000;2022-10-16T04:33:04;96585.38;;;18.49;65.45
48778;BME280;34578;0.000;0.000;2022-10-16T04:38:04;96578.59;;;18.48;65.07
48778;BME280;34578;0.000;0.000;2022-10-16T04:43:05;96571.00;;;18.45;65.12
48778;BME280;34578;0.000;0.000;2022-10-16T04:48:05;96579.44;;;18.48;64.86
48778;BME280;34578;0.000;0.000;2022-10-16T04:53:06;96570.19;;;18.44;65.25
48778;BME280;34578;0.000;0.000;2022-10-16T04:58:07;96587.06;;;18.50;68.55
48778;BME280;34578;0.000;0.000;2022-10-16T05:03:08;96574.38;;;18.53;68.91
48778;BME280;34578;0.000;0.000;2022-10-16T05:08:08;96568.44;;;18.54;67.32
48778;BME280;34578;0.000;0.000;2022-10-16T05:13:09;96574.38;;;18.54;65.29
48778;BME280;34578;0.000;0.000;2022-10-16T05:18:10;96581.94;;;18.56;65.73
48778;BME280;34578;0.000;0.000;2022-10-16T05:23:10;96594.63;;;18.57;64.87
48778;BME280;34578;0.000;0.000;2022-10-16T05:28:11;96605.63;;;18.58;65.13
48778;BME280;34578;0.000;0.000;2022-10-16T05:33:12;96606.47;;;18.58;65.41
48778;BME280;34578;0.000;0.000;2022-10-16T05:38:13;96614.06;;;18.60;65.12
48778;BME280;34578;0.000;0.000;2022-10-16T05:43:13;96621.69;;;18.61;65.38
48778;BME280;34578;0.000;0.000;2022-10-16T05:48:14;96619.97;;;18.65;65.35
48778;BME280;34578;0.000;0.000;2022-10-16T05:53:14;96603.91;;;18.63;65.56
48778;BME280;34578;0.000;0.000;2022-10-16T05:58:14;96598.84;;;18.64;66.24
48778;BME280;34578;0.000;0.000;2022-10-16T06:03:15;96611.53;;;18.66;66.94
48778;BME280;34578;0.000;0.000;2022-10-16T06:08:15;96624.22;;;18.66;65.79
48778;BME280;34578;0.000;0.000;2022-10-16T06:13:16;96626.72;;;18.63;65.44
48778;BME280;34578;0.000;0.000;2022-10-16T06:18:16;96622.50;;;18.62;65.27
48778;BME280;34578;0.000;0.000;2022-10-16T06:23:17;96627.59;;;18.62;65.71
48778;BME280;34578;0.000;0.000;2022-10-16T06:28:18;96636.88;;;18.60;65.26
48778;BME280;34578;0.000;0.000;2022-10-16T06:33:18;96658.84;;;18.59;65.32
48778;BME280;34578;0.000;0.000;2022-10-16T06:38:19;96661.41;;;18.61;65.14
48778;BME280;34578;0.000;0.000;2022-10-16T06:43:19;96667.31;;;18.60;65.03
48778;BME280;34578;0.000;0.000;2022-10-16T06:48:20;96670.69;;;18.60;64.85
48778;BME280;34578;0.000;0.000;2022-10-16T06:53:21;96681.69;;;18.62;67.05
48778;BME280;34578;0.000;0.000;2022-10-16T06:58:22;96675.75;;;18.65;67.40
48778;BME280;34578;0.000;0.000;2022-10-16T07:03:22;96678.31;;;18.63;67.02
48778;BME280;34578;0.000;0.000;2022-10-16T07:08:23;96693.50;;;18.62;66.06
48778;BME280;34578;0.000;0.000;2022-10-16T07:13:23;96711.25;;;18.60;65.35
48778;BME280;34578;0.000;0.000;2022-10-16T07:18:23;96721.41;;;18.60;65.20
48778;BME280;34578;0.000;0.000;2022-10-16T07:23:26;96727.31;;;18.59;65.22
48778;BME280;34578;0.000;0.000;2022-10-16T07:28:27;96725.63;;;18.58;64.96
48778;BME280;34578;0.000;0.000;2022-10-16T07:33:28;96727.34;;;18.53;64.67
48778;BME280;34578;0.000;0.000;2022-10-16T07:38:29;96732.38;;;18.55;65.00
48778;BME280;34578;0.000;0.000;2022-10-16T07:43:29;96745.06;;;18.56;65.56
48778;BME280;34578;0.000;0.000;2022-10-16T07:48:32;96752.69;;;18.61;66.35
48778;BME280;34578;0.000;0.000;2022-10-16T07:53:33;96760.28;;;18.62;67.75
48778;BME280;34578;0.000;0.000;2022-10-16T07:58:34;96764.50;;;18.65;68.02
48778;BME280;34578;0.000;0.000;2022-10-16T08:03:37;96775.50;;;18.62;65.98
48778;BME280;34578;0.000;0.000;2022-10-16T08:08:37;96782.25;;;18.60;64.89
48778;BME280;34578;0.000;0.000;2022-10-16T08:13:38;96780.59;;;18.58;64.83
48778;BME280;34578;0.000;0.000;2022-10-16T08:18:39;96775.50;;;18.56;64.39
48778;BME280;34578;0.000;0.000;2022-10-16T08:23:40;96783.97;;;18.57;67.71
48778;BME280;34578;0.000;0.000;2022-10-16T08:28:40;96789.84;;;18.56;65.39
48778;BME280;34578;0.000;0.000;2022-10-16T08:33:43;96796.66;;;18.57;64.83
48778;BME280;34578;0.000;0.000;2022-10-16T08:38:47;96801.69;;;18.54;66.30
48778;BME280;34578;0.000;0.000;2022-10-16T08:44:07;96795.78;;;18.59;64.52
48778;BME280;34578;0.000;0.000;2022-10-16T08:49:14;96794.09;;;18.93;66.29
48778;BME280;34578;0.000;0.000;2022-10-16T08:54:23;96789.00;;;18.81;67.91
48778;BME280;34578;0.000;0.000;2022-10-16T08:59:26;96785.63;;;18.74;66.21
48778;BME280;34578;0.000;0.000;2022-10-16T09:09:58;96786.47;;;18.63;64.77
48778;BME280;34578;0.000;0.000;2022-10-16T09:20:30;96808.47;;;18.61;64.58
48778;BME280;34578;0.000;0.000;2022-10-16T09:25:33;96811.00;;;18.67;67.37
48778;BME280;34578;0.000;0.000;2022-10-16T09:30:35;96813.53;;;18.64;65.24
48778;BME280;34578;0.000;0.000;2022-10-16T09:35:43;96827.09;;;18.75;69.33
48778;BME280;34578;0.000;0.000;2022-10-16T09:40:45;96820.31;;;18.83;68.29
48778;BME280;34578;0.000;0.000;2022-10-16T09:46:04;96820.31;;;18.78;67.66
48778;BME280;34578;0.000;0.000;2022-10-16T09:51:06;96815.25;;;18.69;65.42
48778;BME280;34578;0.000;0.000;2022-10-16T09:56:31;96817.78;;;18.68;65.13
48778;BME280;34578;0.000;0.000;2022-10-16T10:01:39;96825.34;;;18.65;65.07
48778;BME280;34578;0.000;0.000;2022-10-16T10:06:49;96823.66;;;18.64;64.91
48778;BME280;34578;0.000;0.000;2022-10-16T10:27:39;96815.25;;;18.68;66.25
48778;BME280;34578;0.000;0.000;2022-10-16T11:05:04;96800.00;;;18.71;67.18
48778;BME280;34578;0.000;0.000;2022-10-16T11:10:14;96795.78;;;18.68;65.31
48778;BME280;34578;0.000;0.000;2022-10-16T11:15:17;96795.78;;;18.65;64.93
48778;BME280;34578;0.000;0.000;2022-10-16T11:20:25;96786.50;;;18.64;64.88
48778;BME280;34578;0.000;0.000;2022-10-16T11:25:31;96796.66;;;18.66;64.79
48778;BME280;34578;0.000;0.000;2022-10-16T11:30:44;96793.25;;;18.64;64.81
48778;BME280;34578;0.000;0.000;2022-10-16T11:40:50;96787.34;;;18.68;68.64
48778;BME280;34578;0.000;0.000;2022-10-16T11:45:55;96789.88;;;18.69;68.68
48778;BME280;34578;0.000;0.000;2022-10-16T11:56:38;96793.25;;;18.68;65.19
48778;BME280;34578;0.000;0.000;2022-10-16T12:01:44;96791.56;;;18.63;65.26
48778;BME280;34578;0.000;0.000;2022-10-16T12:06:55;96797.47;;;18.66;64.92
48778;BME280;34578;0.000;0.000;2022-10-16T12:11:58;96792.38;;;18.65;64.96
48778;BME280;34578;0.000;0.000;2022-10-16T12:17:01;96789.03;;;18.66;64.60
48778;BME280;34578;0.000;0.000;2022-10-16T12:22:03;96783.97;;;18.60;65.51
48778;BME280;34578;0.000;0.000;2022-10-16T12:27:17;96780.56;;;18.77;67.68
48778;BME280;34578;0.000;0.000;2022-10-16T12:32:28;96777.19;;;18.90;65.42
48778;BME280;34578;0.000;0.000;2022-10-16T12:37:33;96774.63;;;18.89;64.13
48778;BME280;34578;0.000;0.000;2022-10-16T12:42:34;96774.66;;;18.80;64.15
48778;BME280;34578;0.000;0.000;2022-10-16T12:47:37;96769.59;;;18.74;64.22
48778;BME280;34578;0.000;0.000;2022-10-16T12:52:38;96761.13;;;18.69;64.27
48778;BME280;34578;0.000;0.000;2022-10-16T13:14:09;96758.59;;;18.69;64.06
48778;BME280;34578;0.000;0.000;2022-10-16T13:19:29;96756.06;;;18.72;62.89
48778;BME280;34578;0.000;0.000;2022-10-16T13:29:53;96761.13;;;18.72;63.67
48778;BME280;34578;0.000;0.000;2022-10-16T13:34:55;96752.66;;;18.68;63.96
48778;BME280;34578;0.000;0.000;2022-10-16T13:40:12;96752.69;;;18.67;63.92
48778;BME280;34578;0.000;0.000;2022-10-16T13:45:23;96757.75;;;18.67;64.03
48778;BME280;34578;0.000;0.000;2022-10-16T13:50:25;96751.84;;;18.68;64.11
48778;BME280;34578;0.000;0.000;2022-10-16T13:55:33;96759.44;;;18.65;63.91
48778;BME280;34578;0.000;0.000;2022-10-16T14:00:33;96758.59;;;18.63;64.23
48778;BME280;34578;0.000;0.000;2022-10-16T14:05:35;96764.50;;;18.65;64.01
48778;BME280;34578;0.000;0.000;2022-10-16T14:10:36;96758.59;;;18.73;65.42
48778;BME280;34578;0.000;0.000;2022-10-16T14:15:36;96766.19;;;18.78;65.63
48778;BME280;34578;0.000;0.000;2022-10-16T14:20:37;96758.59;;;18.78;65.41
48778;BME280;34578;0.000;0.000;2022-10-16T14:25:37;96760.28;;;18.68;65.18
48778;BME280;34578;0.000;0.000;2022-10-16T14:30:52;96758.59;;;18.67;65.14
48778;BME280;34578;0.000;0.000;2022-10-16T14:36:11;96762.84;;;18.67;65.06
48778;BME280;34578;0.000;0.000;2022-10-16T14:41:12;96772.09;;;18.65;65.17
48778;BME280;34578;0.000;0.000;2022-10-16T14:46:18;96767.88;;;18.64;65.08
48778;BME280;34578;0.000;0.000;2022-10-16T14:51:19;96761.97;;;18.65;65.02
48778;BME280;34578;0.000;0.000;2022-10-16T14:56:23;96766.19;;;18.63;65.16
48778;BME280;34578;0.000;0.000;2022-10-16T15:01:24;96761.97;;;18.68;66.76
48778;BME280;34578;0.000;0.000;2022-10-16T15:06:24;96764.50;;;18.77;67.36
48778;BME280;34578;0.000;0.000;2022-10-16T15:11:25;96774.66;;;18.80;66.48
48778;BME280;34578;0.000;0.000;2022-10-16T15:16:25;96773.81;;;18.79;66.63
48778;BME280;34578;0.000;0.000;2022-10-16T15:21:30;96779.72;;;18.80;65.91
48778;BME280;34578;0.000;0.000;2022-10-16T15:26:31;96779.75;;;18.74;65.09
48778;BME280;34578;0.000;0.000;2022-10-16T15:31:32;96774.66;;;18.66;64.85
48778;BME280;34578;0.000;0.000;2022-10-16T15:36:34;96783.97;;;18.69;64.94
48778;BME280;34578;0.000;0.000;2022-10-16T15:41:36;96781.41;;;18.78;67.79
48778;BME280;34578;0.000;0.000;2022-10-16T15:46:37;96784.78;;;18.84;67.68
48778;BME280;34578;0.000;0.000;2022-10-16T15:51:38;96794.94;;;18.80;66.71
48778;BME280;34578;0.000;0.000;2022-10-16T15:56:39;96805.09;;;18.77;66.26
48778;BME280;34578;0.000;0.000;2022-10-16T16:01:39;96804.22;;;18.72;65.19
48778;BME280;34578;0.000;0.000;2022-10-16T16:06:40;96816.94;;;18.70;65.03
48778;BME280;34578;0.000;0.000;2022-10-16T16:11:44;96824.53;;;18.72;64.86
48778;BME280;34578;0.000;0.000;2022-10-16T16:16:45;96821.16;;;18.70;64.83
48778;BME280;34578;0.000;0.000;2022-10-16T16:21:45;96815.25;;;18.72;66.99
48778;BME280;34578;0.000;0.000;2022-10-16T16:26:45;96817.75;;;18.80;68.26
48778;BME280;34578;0.000;0.000;2022-10-16T16:31:46;96821.16;;;18.80;68.24
48778;BME280;34578;0.000;0.000;2022-10-16T16:36:47;96823.69;;;18.79;66.88
48778;BME280;34578;0.000;0.000;2022-10-16T16:41:47;96835.53;;;18.74;65.41
48778;BME280;34578;0.000;0.000;2022-10-16T16:46:48;96840.59;;;18.71;64.83
48778;BME280;34578;0.000;0.000;2022-10-16T16:51:48;96852.41;;;18.72;66.46
48778;BME280;34578;0.000;0.000;2022-10-16T16:56:48;96855.81;;;18.71;65.21
48778;BME280;34578;0.000;0.000;2022-10-16T17:01:49;96859.19;;;18.70;65.03
48778;BME280;34578;0.000;0.000;2022-10-16T17:06:53;96873.56;;;18.77;68.47
48778;BME280;34578;0.000;0.000;2022-10-16T17:11:54;96875.28;;;18.82;68.56
48778;BME280;34578;0.000;0.000;2022-10-16T17:16:54;96876.94;;;18.79;67.67
48778;BME280;34578;0.000;0.000;2022-10-16T17:21:55;96896.41;;;18.77;67.33
48778;BME280;34578;0.000;0.000;2022-10-16T17:26:55;96892.16;;;18.73;67.10
48778;BME280;34578;0.000;0.000;2022-10-16T17:31:56;96893.84;;;18.72;66.46
48778;BME280;34578;0.000;0.000;2022-10-16T17:36:58;96894.69;;;18.70;65.35
48778;BME280;34578;0.000;0.000;2022-10-16T17:41:59;96909.91;;;18.70;65.20
48778;BME280;34578;0.000;0.000;2022-10-16T17:46:59;96920.91;;;18.69;65.21
48778;BME280;34578;0.000;0.000;2022-10-16T17:52:00;96923.47;;;18.78;68.67
48778;BME280;34578;0.000;0.000;2022-10-16T17:57:02;96925.13;;;18.73;69.47
48778;BME280;34578;0.000;0.000;2022-10-16T18:02:02;96944.63;;;18.83;68.08
48778;BME280;34578;0.000;0.000;2022-10-16T18:07:03;96949.69;;;18.78;66.91
48778;BME280;34578;0.000;0.000;2022-10-16T18:12:03;96957.28;;;18.74;65.43
48778;BME280;34578;0.000;0.000;2022-10-16T18:17:04;96947.97;;;18.71;65.31
48778;BME280;34578;0.000;0.000;2022-10-16T18:22:04;96964.00;;;18.72;65.58
48778;BME280;34578;0.000;0.000;2022-10-16T18:27:05;96965.72;;;18.70;65.20
48778;BME280;34578;0.000;0.000;2022-10-16T18:32:05;96959.81;;;18.77;69.31
48778;BME280;34578;0.000;0.000;2022-10-16T18:37:05;96962.38;;;18.83;69.31
48778;BME280;34578;0.000;0.000;2022-10-16T18:42:06;96964.06;;;18.82;68.68
48778;BME280;34578;0.000;0.000;2022-10-16T18:47:06;96980.09;;;18.80;66.78
48778;BME280;34578;0.000;0.000;2022-10-16T18:52:07;96978.41;;;18.74;65.82
48778;BME280;34578;0.000;0.000;2022-10-16T18:57:07;96984.31;;;18.72;65.66
48778;BME280;34578;0.000;0.000;2022-10-16T19:02:08;96992.75;;;18.71;65.28
48778;BME280;34578;0.000;0.000;2022-10-16T19:07:09;96989.41;;;18.70;65.27
48778;BME280;34578;0.000;0.000;2022-10-16T19:12:10;96994.44;;;18.66;65.13
48778;BME280;34578;0.000;0.000;2022-10-16T19:17:10;96999.56;;;18.78;69.05
48778;BME280;34578;0.000;0.000;2022-10-16T19:22:11;96991.09;;;18.76;68.74
48778;BME280;34578;0.000;0.000;2022-10-16T19:27:13;97008.88;;;18.80;68.33
48778;BME280;34578;0.000;0.000;2022-10-16T19:32:13;97020.72;;;18.78;67.01
48778;BME280;34578;0.000;0.000;2022-10-16T19:37:14;97023.22;;;18.77;66.80
48778;BME280;34578;0.000;0.000;2022-10-16T19:42:14;97030.81;;;18.72;65.53
48778;BME280;34578;0.000;0.000;2022-10-16T19:47:15;97035.88;;;18.71;65.31
48778;BME280;34578;0.000;0.000;2022-10-16T19:52:15;97051.09;;;18.71;65.11
48778;BME280;34578;0.000;0.000;2022-10-16T19:57:21;97051.94;;;18.70;65.34
48778;BME280;34578;0.000;0.000;2022-10-16T20:02:22;97062.97;;;18.75;68.23
48778;BME280;34578;0.000;0.000;2022-10-16T20:07:23;97074.84;;;18.82;68.26
48778;BME280;34578;0.000;0.000;2022-10-16T20:12:23;97086.66;;;18.81;67.83
48778;BME280;34578;0.000;0.000;2022-10-16T20:17:24;97084.97;;;18.80;66.61
48778;BME280;34578;0.000;0.000;2022-10-16T20:22:24;97091.72;;;18.77;66.75
48778;BME280;34578;0.000;0.000;2022-10-16T20:27:24;97091.69;;;18.72;65.45
48778;BME280;34578;0.000;0.000;2022-10-16T20:32:31;97091.69;;;18.71;65.34
48778;BME280;34578;0.000;0.000;2022-10-16T20:37:32;97095.91;;;18.69;65.30
48778;BME280;34578;0.000;0.000;2022-10-16T20:42:32;97109.44;;;18.71;65.57
48778;BME280;34578;0.000;0.000;2022-10-16T20:47:33;97110.25;;;18.68;67.00
48778;BME280;34578;0.000;0.000;2022-10-16T20:52:33;97111.16;;;18.81;69.02
48778;BME280;34578;0.000;0.000;2022-10-16T20:57:34;97113.75;;;18.84;69.02
48778;BME280;34578;0.000;0.000;2022-10-16T21:02:34;97106.09;;;18.81;67.17
48778;BME280;34578;0.000;0.000;2022-10-16T21:07:35;97111.16;;;18.75;66.97
48778;BME280;34578;0.000;0.000;2022-10-16T21:12:35;97109.47;;;18.74;66.36
48778;BME280;34578;0.000;0.000;2022-10-16T21:17:36;97117.91;;;18.71;65.42
48778;BME280;34578;0.000;0.000;2022-10-16T21:22:36;97117.88;;;18.70;65.35
48778;BME280;34578;0.000;0.000;2022-10-16T21:27:38;97112.81;;;18.70;65.70
48778;BME280;34578;0.000;0.000;2022-10-16T21:32:38;97117.88;;;18.70;65.29
48778;BME280;34578;0.000;0.000;2022-10-16T21:37:39;97128.06;;;18.76;68.24
48778;BME280;34578;0.000;0.000;2022-10-16T21:42:39;97117.97;;;18.82;68.63
48778;BME280;34578;0.000;0.000;2022-10-16T21:47:40;97120.47;;;18.79;67.75
48778;BME280;34578;0.000;0.000;2022-10-16T21:52:41;97111.16;;;18.75;67.37
48778;BME280;34578;0.000;0.000;2022-10-16T21:57:42;97123.84;;;18.75;67.29
48778;BME280;34578;0.000;0.000;2022-10-16T22:02:42;97122.16;;;18.74;66.39
48778;BME280;34578;0.000;0.000;2022-10-16T22:07:42;97119.56;;;18.71;67.12
48778;BME280;34578;0.000;0.000;2022-10-16T22:12:43;97119.56;;;18.71;65.41
48778;BME280;34578;0.000;0.000;2022-10-16T22:17:43;97108.59;;;18.69;65.40
48778;BME280;34578;0.000;0.000;2022-10-16T22:22:44;97109.44;;;18.68;65.91
48778;BME280;34578;0.000;0.000;2022-10-16T22:27:44;97117.09;;;18.80;69.25
48778;BME280;34578;0.000;0.000;2022-10-16T22:32:44;97117.94;;;18.83;68.75
48778;BME280;34578;0.000;0.000;2022-10-16T22:37:45;97113.72;;;18.79;67.29
48778;BME280;34578;0.000;0.000;2022-10-16T22:42:45;97122.97;;;18.77;67.13
48778;BME280;34578;0.000;0.000;2022-10-16T22:47:46;97116.22;;;18.73;67.00
48778;BME280;34578;0.000;0.000;2022-10-16T22:52:46;97124.66;;;18.72;65.75
48778;BME280;34578;0.000;0.000;2022-10-16T22:57:46;97130.56;;;18.73;66.39
48778;BME280;34578;0.000;0.000;2022-10-16T23:02:47;97128.03;;;18.71;66.27
48778;BME280;34578;0.000;0.000;2022-10-16T23:07:47;97131.41;;;18.69;65.37
48778;BME280;34578;0.000;0.000;2022-10-16T23:12:48;97136.47;;;18.69;66.29
48778;BME280;34578;0.000;0.000;2022-10-16T23:17:49;97137.38;;;18.78;69.08
48778;BME280;34578;0.000;0.000;2022-10-16T23:22:49;97140.78;;;18.82;67.95
48778;BME280;34578;0.000;0.000;2022-10-16T23:27:53;97137.38;;;18.78;67.20
48778;BME280;34578;0.000;0.000;2022-10-16T23:32:54;97127.19;;;18.71;67.43
48778;BME280;34578;0.000;0.000;2022-10-16T23:37:54;97144.13;;;18.73;66.14
48778;BME280;34578;0.000;0.000;2022-10-16T23:42:55;97149.16;;;18.72;65.46
48778;BME280;34578;0.000;0.000;2022-10-16T23:47:55;97151.69;;;18.69;65.40
48778;BME280;34578;0.000;0.000;2022-10-16T23:52:55;97149.16;;;18.69;65.29
48778;BME280;34578;0.000;0.000;2022-10-16T23:57:56;97148.31;;;18.67;65.15
